This is the latest recevied weather packets stored in our database for station/object kc7mrq. If no packets are shown the sender has not sent any weather packets the latest 10 day(s).
| Time | Temp. | Humidity | Pressure | Rain* | Wind** | Luminosity | Snow |
|---|---|---|---|---|---|---|---|
| 1777688136 | 15° C | 28% | 1014.7 hPa | 0 mm | - | - | - |
| 1777680932 | 18.89° C | 15% | 1015.2 hPa | 0 mm | - | - | - |
| 1777675517 | 18.89° C | 21% | 1015.9 hPa | 0 mm | - | - | - |
| 1777672811 | 18.33° C | 22% | 1016.4 hPa | 0 mm | - | - | - |
| 1777657537 | 13.89° C | 31% | 1019.5 hPa | 0 mm | - | - | - |
| 1777654822 | 12.22° C | 36% | 1020.1 hPa | 0 mm | - | - | - |
| 1777653018 | 10.56° C | 39% | 1020.5 hPa | 0 mm | - | - | - |
| 1777644041 | 3.89° C | 60% | 1021.4 hPa | 0 mm | - | - | - |
| 1777642237 | 2.22° C | 62% | 1021.2 hPa | 0 mm | - | - | - |
| 1777641350 | 1.67° C | 65% | 1021.1 hPa | 0 mm | - | - | - |
| 1777640436 | 1.11° C | 65% | 1021.1 hPa | 0 mm | - | - | - |
| 1777639535 | 1.11° C | 65% | 1021.1 hPa | 0 mm | - | - | - |
| 1777638636 | 1.11° C | 65% | 1021.1 hPa | 0 mm | - | - | - |
| 1777634134 | 1.11° C | 65% | 1021.1 hPa | 0 mm | - | - | - |
| 1777632326 | 1.67° C | 64% | 1021 hPa | 0 mm | - | - | - |
| 1777627812 | 2.22° C | 60% | 1020.9 hPa | 0 mm | - | - | - |
| 1777626009 | 2.78° C | 60% | 1020.7 hPa | 0 mm | - | - | - |
| 1777622402 | 2.78° C | 59% | 1020.6 hPa | 0 mm | - | - | - |
| 1777612553 | 3.89° C | 56% | 1020.9 hPa | 0 mm | - | - | - |
| 1777611645 | 3.89° C | 56% | 1020.9 hPa | 0 mm | - | - | - |
| 1777609856 | 4.44° C | 54% | 1020.9 hPa | 0 mm | - | - | - |
| 1777608049 | 5° C | 50% | 1020.7 hPa | 0 mm | - | - | - |
| 1777607151 | 6.11° C | 47% | 1020.7 hPa | 0 mm | - | - | - |
| 1777606240 | 5.56° C | 49% | 1020.5 hPa | 0 mm | - | - | - |
| 1777605340 | 6.11° C | 46% | 1020.5 hPa | 0 mm | - | - | - |
* Rain latest hour (hover to see other rain measurements)
** Current wind speed in m/s (hover to see current wind gust speed)